San Francisco, California
Current Conditions -  °F | °C
As of 3:56 AM on Friday 24 Oct 2014 (Local Time) from KSFO Reporting Station
Broken Clouds Broken Clouds  
Wind Chill: 17°   Ceiling: 1700
Heat Index: 17°   Visibility: 10mi
Dew Point: 13°   Wind: 5mph
Humidity: 78%   Direction: 170°S
Pressure: 29.96"   Gusts: NA
Location:  37.78°N, 122.42°W
Report Text: KSFO 241056Z 17004KT 10SM FEW008 BKN017 17/13 A2996 RMK AO2 SLP144 T01720133 $
Loading
Personal Weather Stations






























Interactive Weather Map
Tropical Storm Tracking
New forecast layout! Learn more

10-Day Weather Forecast

Advertisements
Track Severe Weather on mobile